Time;durP1;ratioP1;P1;durP2;ratioP2;P2;SDS_P1;SDS_P2;PMS_P1;PMS_P2;Temp;Humidity;BMP_temperature;BMP_pressure;BME280_temperature;BME280_humidity;BME280_pressure;Samples;Min_cycle;Max_cycle;Signal;HPM_P1;HPM_P2
2023/05/16 00:01:47;;;;;;;12.00;5.40;;;;;;;28.80;23.80;100121.86;108220;1255;69678;-66
2023/05/16 00:04:13;;;;;;;7.70;4.80;;;;;;;28.53;23.83;100119.84;108150;1254;73665;-65
2023/05/16 00:06:40;;;;;;;6.90;4.50;;;;;;;28.65;23.71;100115.61;108127;1253;61234;-66
2023/05/16 00:09:07;;;;;;;7.50;4.50;;;;;;;28.74;23.80;100115.34;108152;1254;60252;-66
2023/05/16 00:11:34;;;;;;;10.60;5.00;;;;;;;28.85;23.31;100118.39;108194;1254;75032;-67
2023/05/16 00:14:01;;;;;;;10.80;4.50;;;;;;;28.41;23.81;100118.59;108129;1257;71413;-66
2023/05/16 00:16:28;;;;;;;8.90;4.60;;;;;;;28.68;23.62;100124.60;108147;1254;72847;-67
2023/05/16 00:18:56;;;;;;;11.70;4.90;;;;;;;28.58;23.47;100122.80;108208;1256;60495;-65
2023/05/16 00:21:23;;;;;;;7.60;4.80;;;;;;;28.70;23.39;100118.30;108222;1254;61126;-67
2023/05/16 00:23:51;;;;;;;7.70;4.80;;;;;;;28.92;23.22;100120.99;108257;1256;73030;-68
2023/05/16 00:26:18;;;;;;;12.50;5.10;;;;;;;29.05;23.08;100120.03;108157;1256;71712;-67
2023/05/16 00:28:45;;;;;;;8.80;4.50;;;;;;;29.12;22.91;100118.93;108151;1253;72112;-67
2023/05/16 00:31:11;;;;;;;7.60;4.50;;;;;;;29.20;22.70;100121.09;108203;1254;60779;-67
2023/05/16 00:33:38;;;;;;;14.00;5.00;;;;;;;28.87;23.18;100124.61;108226;1254;60363;-67
2023/05/16 00:36:06;;;;;;;11.00;5.20;;;;;;;28.88;23.09;100131.92;108080;1254;74998;-68
2023/05/16 00:38:33;;;;;;;8.40;4.50;;;;;;;29.06;22.85;100130.20;108246;1254;71559;-68
2023/05/16 00:41:00;;;;;;;8.40;4.80;;;;;;;28.88;23.36;100135.84;108173;1256;73762;-68
2023/05/16 00:43:28;;;;;;;9.10;4.60;;;;;;;28.88;23.20;100129.23;108163;1254;59578;-67
2023/05/16 00:45:56;;;;;;;8.40;4.40;;;;;;;29.02;23.10;100128.02;108190;1255;60392;-68
2023/05/16 00:48:23;;;;;;;8.00;5.10;;;;;;;29.11;23.04;100132.04;108192;1256;74752;-66
2023/05/16 00:50:52;;;;;;;9.10;4.90;;;;;;;29.14;22.82;100134.16;108199;1256;69637;-66
2023/05/16 00:53:19;;;;;;;6.40;4.30;;;;;;;28.87;23.26;100133.86;108082;1254;73856;-68
2023/05/16 00:55:46;;;;;;;11.70;5.40;;;;;;;28.80;23.41;100137.67;108130;1259;61108;-66
2023/05/16 00:58:13;;;;;;;9.90;4.80;;;;;;;28.58;23.79;100139.98;108195;1253;61561;-65
2023/05/16 01:00:40;;;;;;;10.20;5.30;;;;;;;28.40;24.01;100137.13;108084;1254;72977;-66
2023/05/16 01:03:07;;;;;;;15.40;5.60;;;;;;;28.92;23.31;100135.84;108185;1254;69249;-67
2023/05/16 01:05:34;;;;;;;10.60;5.40;;;;;;;29.04;23.14;100127.22;108259;1257;72743;-66
2023/05/16 01:08:00;;;;;;;10.00;5.30;;;;;;;29.23;23.01;100127.34;108188;1252;60254;-65
2023/05/16 01:10:35;;;;;;;9.50;5.30;;;;;;;29.04;23.10;100127.20;108202;1253;60397;-65
2023/05/16 01:13:11;;;;;;;15.50;5.60;;;;;;;28.90;23.38;100129.88;108218;1256;74785;-66
2023/05/16 01:15:44;;;;;;;9.50;5.40;;;;;;;28.50;23.91;100128.94;108193;1254;70477;-65
2023/05/16 01:18:33;;;;;;;10.70;5.90;;;;;;;28.27;24.16;100121.83;108152;1254;70772;-65
2023/05/16 01:21:03;;;;;;;12.00;6.00;;;;;;;28.00;24.52;100123.86;108110;1254;60427;-65
2023/05/16 01:23:50;;;;;;;9.90;5.10;;;;;;;28.26;24.15;100125.48;108162;1254;60787;-66
2023/05/16 01:26:26;;;;;;;12.50;6.40;;;;;;;28.42;24.14;100118.16;108149;1253;74090;-66
2023/05/16 01:28:53;;;;;;;13.10;6.30;;;;;;;28.76;23.64;100118.52;108225;1254;71345;-65
2023/05/16 01:31:20;;;;;;;14.70;6.30;;;;;;;28.78;23.63;100119.46;108055;1254;72484;-67
2023/05/16 01:33:47;;;;;;;11.30;6.20;;;;;;;28.76;23.63;100122.56;108210;1256;60536;-66
2023/05/16 01:36:24;;;;;;;17.70;7.00;;;;;;;29.13;23.36;100119.34;108150;1254;60418;-67
2023/05/16 01:39:18;;;;;;;15.20;6.50;;;;;;;28.97;23.38;100119.48;108108;1253;74967;-66
2023/05/16 01:41:48;;;;;;;12.00;6.20;;;;;;;28.94;23.35;100119.86;108128;1254;70378;-66
2023/05/16 01:44:24;;;;;;;8.00;5.80;;;;;;;28.90;23.32;100118.66;108140;1255;71998;-66
2023/05/16 01:46:55;;;;;;;15.10;6.80;;;;;;;28.82;23.36;100116.02;108133;1255;61075;-66
2023/05/16 01:49:44;;;;;;;15.20;5.90;;;;;;;29.11;23.22;100119.94;108169;1254;61013;-65
2023/05/16 01:52:18;;;;;;;10.80;6.30;;;;;;;29.13;23.12;100115.72;108245;1254;74836;-67
2023/05/16 01:54:46;;;;;;;15.60;5.70;;;;;;;29.07;23.33;100117.81;108195;1253;69709;-64
2023/05/16 01:57:13;;;;;;;11.30;6.10;;;;;;;28.99;23.51;100119.02;108203;1254;73791;-66
2023/05/16 01:59:40;;;;;;;10.60;6.20;;;;;;;29.08;23.27;100116.77;108107;1253;61382;-65
2023/05/16 02:02:07;;;;;;;10.60;6.00;;;;;;;29.15;23.27;100114.54;108100;1254;61497;-65
2023/05/16 02:04:34;;;;;;;12.80;6.30;;;;;;;29.17;23.42;100115.21;108012;1255;75137;-65
2023/05/16 02:07:03;;;;;;;18.50;6.20;;;;;;;29.56;23.01;100112.65;108071;1254;71872;-66
2023/05/16 02:09:30;;;;;;;13.60;6.00;;;;;;;29.16;23.35;100106.65;108037;1254;73592;-66
2023/05/16 02:11:57;;;;;;;16.80;6.30;;;;;;;29.32;23.30;100104.14;107993;1254;61161;-67
2023/05/16 02:14:24;;;;;;;15.80;6.30;;;;;;;29.63;22.89;100103.23;107978;1254;61209;-67
2023/05/16 02:16:51;;;;;;;9.60;5.90;;;;;;;29.58;22.87;100101.92;108082;1255;75029;-66
2023/05/16 02:19:18;;;;;;;12.20;5.90;;;;;;;29.13;23.37;100102.27;108008;1254;71118;-66
2023/05/16 02:21:45;;;;;;;13.60;6.10;;;;;;;29.00;23.56;100101.23;107994;1255;73723;-64
2023/05/16 02:24:11;;;;;;;15.40;5.90;;;;;;;29.08;23.63;100102.32;108180;1254;61525;-66
2023/05/16 02:26:38;;;;;;;8.80;5.60;;;;;;;29.59;23.10;100099.17;108241;1253;60347;-66
2023/05/16 02:29:05;;;;;;;11.10;5.50;;;;;;;29.67;22.85;100096.20;108201;1256;74331;-66
2023/05/16 02:31:33;;;;;;;9.50;5.90;;;;;;;29.77;23.13;100097.15;108240;1254;71788;-66
2023/05/16 02:34:00;;;;;;;9.00;5.30;;;;;;;29.60;23.01;100095.27;108134;1255;71882;-66
2023/05/16 02:36:27;;;;;;;9.50;5.40;;;;;;;29.41;23.07;100098.64;108198;1254;61152;-66
2023/05/16 02:38:54;;;;;;;10.60;5.60;;;;;;;29.34;23.24;100099.48;108175;1254;60980;-69
2023/05/16 02:41:22;;;;;;;10.50;5.60;;;;;;;29.40;23.12;100094.86;108160;1253;75331;-66
2023/05/16 02:43:48;;;;;;;12.80;5.70;;;;;;;29.56;22.95;100093.19;108109;1254;71049;-65
2023/05/16 02:46:22;;;;;;;9.30;5.10;;;;;;;29.43;23.05;100096.54;108198;1254;73799;-66
2023/05/16 02:48:50;;;;;;;10.10;5.50;;;;;;;29.17;23.46;100102.10;108210;1253;61747;-67
2023/05/16 02:51:19;;;;;;;11.90;5.40;;;;;;;29.51;22.91;100096.86;108197;1253;60273;-66
2023/05/16 02:53:46;;;;;;;16.00;6.00;;;;;;;29.17;23.10;100102.35;108094;1258;73466;-67
2023/05/16 02:56:13;;;;;;;12.30;5.60;;;;;;;29.06;23.08;100103.29;108162;1254;70109;-65
2023/05/16 02:58:40;;;;;;;9.00;5.30;;;;;;;28.97;23.41;100104.91;108162;1254;72982;-65
2023/05/16 03:01:07;;;;;;;14.80;6.20;;;;;;;28.67;23.71;100106.32;108177;1257;60475;-63
2023/05/16 03:03:35;;;;;;;10.20;4.90;;;;;;;28.83;23.51;100104.90;108132;1253;60758;-66
2023/05/16 03:06:05;;;;;;;14.00;5.70;;;;;;;28.85;23.54;100110.46;108177;1253;72593;-65
2023/05/16 03:08:33;;;;;;;10.90;5.30;;;;;;;28.63;23.84;100107.36;108231;1253;71205;-66
2023/05/16 03:11:00;;;;;;;7.20;4.90;;;;;;;28.72;23.76;100103.90;108158;1254;72656;-64
2023/05/16 03:13:28;;;;;;;10.40;5.50;;;;;;;28.76;23.74;100100.48;108242;1253;60328;-65
2023/05/16 03:15:58;;;;;;;9.70;5.50;;;;;;;28.79;23.68;100098.96;108180;1253;60453;-66
2023/05/16 03:18:24;;;;;;;10.10;5.60;;;;;;;28.76;23.72;100099.84;108187;1255;73874;-65
2023/05/16 03:20:55;;;;;;;12.60;5.60;;;;;;;28.51;24.16;100105.72;108240;1253;70347;-64
2023/05/16 03:23:23;;;;;;;8.80;5.30;;;;;;;28.59;24.06;100101.20;108174;1253;73138;-65
2023/05/16 03:25:50;;;;;;;11.50;5.30;;;;;;;28.49;24.22;100103.61;108159;1252;60798;-65
2023/05/16 03:28:20;;;;;;;7.30;5.20;;;;;;;29.05;23.61;100103.77;108190;1253;61168;-65
2023/05/16 03:30:46;;;;;;;9.80;5.10;;;;;;;29.10;23.71;100102.48;108214;1253;73204;-67
2023/05/16 03:33:14;;;;;;;9.70;5.90;;;;;;;28.85;23.90;100102.30;108124;1257;69544;-67
2023/05/16 03:35:41;;;;;;;7.10;5.20;;;;;;;29.02;23.71;100101.23;108191;1253;72843;-67
2023/05/16 03:38:07;;;;;;;12.50;5.20;;;;;;;29.03;23.82;100099.05;108215;1252;61560;-65
2023/05/16 03:40:34;;;;;;;9.30;5.40;;;;;;;29.05;23.75;100099.27;108171;1253;60696;-67
2023/05/16 03:43:01;;;;;;;12.70;6.10;;;;;;;28.95;23.93;100098.25;108049;1254;72920;-66
2023/05/16 03:45:30;;;;;;;17.30;5.80;;;;;;;28.61;24.55;100095.95;108177;1253;69938;-66
2023/05/16 03:47:59;;;;;;;10.00;5.40;;;;;;;28.74;24.27;100099.19;108121;1252;71854;-65
2023/05/16 03:50:25;;;;;;;12.50;6.10;;;;;;;28.83;24.22;100099.09;108212;1253;61120;-67
2023/05/16 03:52:53;;;;;;;10.70;5.50;;;;;;;28.94;24.09;100103.00;108277;1254;59612;-67
2023/05/16 03:55:22;;;;;;;13.20;5.60;;;;;;;29.04;24.04;100106.29;108227;1254;74345;-68
2023/05/16 03:57:50;;;;;;;10.30;6.00;;;;;;;28.78;24.37;100107.73;108185;1254;71222;-67
2023/05/16 04:00:16;;;;;;;11.40;5.80;;;;;;;28.73;24.51;100107.21;108218;1254;71656;-67
2023/05/16 04:02:43;;;;;;;9.60;5.90;;;;;;;29.11;23.97;100107.97;108187;1254;61299;-66
2023/05/16 04:05:11;;;;;;;15.80;6.50;;;;;;;29.12;24.00;100109.62;108314;1253;61544;-67
2023/05/16 04:07:39;;;;;;;12.90;6.30;;;;;;;29.29;23.91;100113.48;108220;1254;74827;-66
2023/05/16 04:10:06;;;;;;;12.60;6.00;;;;;;;29.33;23.81;100117.66;108188;1253;70694;-68
2023/05/16 04:12:32;;;;;;;11.30;5.40;;;;;;;29.33;24.06;100122.41;108227;1253;72165;-67
2023/05/16 04:14:59;;;;;;;13.10;6.10;;;;;;;29.40;23.63;100127.34;108222;1253;60437;-66
2023/05/16 04:17:26;;;;;;;8.70;5.10;;;;;;;29.35;24.09;100125.66;108040;1256;251714;-67
2023/05/16 04:21:15;;;;;;;12.40;6.00;;;;;;;24.80;29.59;100140.80;104922;1294;600047;-67
2023/05/16 04:23:41;;;;;;;13.10;6.20;;;;;;;26.41;27.49;100134.90;107352;1267;58924;-66
2023/05/16 04:26:08;;;;;;;9.90;5.50;;;;;;;26.84;26.95;100136.13;107464;1260;59021;-66
2023/05/16 04:28:35;;;;;;;16.00;6.00;;;;;;;26.77;27.13;100135.97;107519;1260;74160;-66
2023/05/16 04:31:02;;;;;;;9.50;5.40;;;;;;;27.27;26.54;100134.38;107566;1265;72719;-66
2023/05/16 04:33:29;;;;;;;11.30;5.50;;;;;;;27.39;26.43;100140.27;107450;1260;74992;-66
2023/05/16 04:35:57;;;;;;;9.50;5.90;;;;;;;27.26;26.47;100140.77;107410;1260;280681;-65
2023/05/16 04:38:24;;;;;;;8.40;5.30;;;;;;;27.40;26.20;100148.86;107663;1258;62641;-66
2023/05/16 04:40:51;;;;;;;8.50;5.20;;;;;;;27.27;26.45;100150.74;107685;1260;72045;-67
2023/05/16 04:43:18;;;;;;;8.70;5.90;;;;;;;27.41;26.13;100154.75;107732;1261;72414;-67
2023/05/16 04:45:46;;;;;;;9.40;4.90;;;;;;;27.61;25.90;100151.73;107599;1259;75168;-67
2023/05/16 04:48:12;;;;;;;7.50;5.20;;;;;;;27.76;25.57;100153.33;107753;1259;59324;-65
2023/05/16 04:50:40;;;;;;;10.20;5.40;;;;;;;27.61;25.44;100156.61;107844;1258;62712;-68
2023/05/16 04:53:06;;;;;;;10.30;5.40;;;;;;;27.33;25.56;100155.48;107679;1260;75099;-68
2023/05/16 04:55:33;;;;;;;8.60;5.50;;;;;;;27.77;25.16;100154.58;107603;1260;72564;-67
2023/05/16 04:58:00;;;;;;;8.30;4.90;;;;;;;27.54;25.11;100154.30;107567;1259;71619;-67
2023/05/16 05:00:27;;;;;;;9.90;4.40;;;;;;;27.12;25.25;100155.38;107551;1260;61712;-66
2023/05/16 05:02:54;;;;;;;16.80;4.90;;;;;;;27.21;25.22;100150.51;107583;1260;61015;-66
2023/05/16 05:05:21;;;;;;;19.00;5.70;;;;;;;27.73;24.72;100150.09;107630;1260;73237;-67
2023/05/16 05:07:49;;;;;;;7.30;4.90;;;;;;;28.04;24.25;100152.46;107547;1260;72872;-68
2023/05/16 05:10:18;;;;;;;10.30;4.90;;;;;;;28.32;23.80;100148.91;107583;1265;74909;-67
2023/05/16 05:12:46;;;;;;;11.50;4.90;;;;;;;28.25;23.92;100149.08;107565;1260;61535;-68
2023/05/16 05:15:13;;;;;;;9.90;4.80;;;;;;;28.16;23.93;100158.90;107612;1260;61088;-67
2023/05/16 05:17:40;;;;;;;16.50;5.40;;;;;;;28.41;23.68;100157.83;107582;1259;74145;-67
2023/05/16 05:20:09;;;;;;;11.00;4.60;;;;;;;28.36;23.71;100156.72;107569;1261;69189;-68
2023/05/16 05:22:36;;;;;;;12.50;5.40;;;;;;;28.42;23.55;100158.27;107571;1260;73316;-66
2023/05/16 05:25:04;;;;;;;10.30;5.00;;;;;;;28.38;23.81;100157.58;107836;1259;61280;-69
2023/05/16 05:27:36;;;;;;;10.80;5.10;;;;;;;28.65;23.45;100160.55;107699;1256;61173;-67
2023/05/16 05:30:03;;;;;;;10.60;4.40;;;;;;;28.60;23.46;100160.40;107796;1256;73034;-67
2023/05/16 05:32:30;;;;;;;12.00;5.30;;;;;;;28.69;23.41;100166.10;107798;1256;70544;-67
2023/05/16 05:34:57;;;;;;;11.60;4.60;;;;;;;28.89;23.07;100168.92;107720;1256;75227;-66
2023/05/16 05:37:25;;;;;;;10.70;4.80;;;;;;;28.21;23.70;100164.93;107812;1256;62694;-65
2023/05/16 05:39:52;;;;;;;10.00;4.10;;;;;;;28.27;23.55;100163.00;107663;1256;60089;-67
2023/05/16 05:42:19;;;;;;;9.20;4.60;;;;;;;28.65;23.37;100160.02;107732;1256;75752;-66
2023/05/16 05:44:46;;;;;;;10.50;4.20;;;;;;;28.84;22.97;100162.90;107757;1256;70886;-68
2023/05/16 05:47:15;;;;;;;7.90;4.20;;;;;;;29.14;22.58;100163.36;107715;1256;74767;-67
2023/05/16 05:49:42;;;;;;;9.10;4.10;;;;;;;29.18;22.50;100166.83;107667;1256;60605;-67
2023/05/16 05:52:09;;;;;;;11.90;5.20;;;;;;;29.25;22.43;100166.95;107733;1256;61590;-67
2023/05/16 05:54:36;;;;;;;15.30;5.10;;;;;;;29.10;22.11;100165.42;107825;1257;72665;-68
2023/05/16 05:57:03;;;;;;;11.70;4.70;;;;;;;28.49;22.96;100169.68;107815;1256;72902;-68
2023/05/16 05:59:30;;;;;;;10.60;5.00;;;;;;;28.94;22.69;100177.68;107731;1256;73642;-67
2023/05/16 06:01:57;;;;;;;8.70;4.40;;;;;;;28.60;22.81;100181.32;107778;1256;61271;-67
2023/05/16 06:04:24;;;;;;;11.70;5.00;;;;;;;28.54;23.01;100185.23;107792;1256;60794;-66
2023/05/16 06:06:51;;;;;;;13.80;4.80;;;;;;;28.56;23.02;100188.26;107765;1256;75399;-69
2023/05/16 06:09:19;;;;;;;11.00;4.70;;;;;;;28.56;23.20;100193.52;107791;1256;69535;-68
2023/05/16 06:11:46;;;;;;;12.00;4.20;;;;;;;28.57;22.99;100191.91;107737;1256;72652;-67
2023/05/16 06:14:13;;;;;;;10.60;4.80;;;;;;;28.57;23.25;100196.83;107741;1256;62529;-67
2023/05/16 06:16:40;;;;;;;14.10;5.20;;;;;;;29.02;22.95;100196.13;107799;1257;61115;-65
2023/05/16 06:19:08;;;;;;;14.50;4.90;;;;;;;28.94;22.96;100197.60;107869;1256;73355;-66
2023/05/16 06:21:35;;;;;;;13.50;4.40;;;;;;;28.81;23.30;100194.12;107746;1256;70427;-67
2023/05/16 06:24:02;;;;;;;11.40;4.40;;;;;;;28.95;23.72;100196.55;107786;1259;72521;-70
2023/05/16 06:26:30;;;;;;;12.20;4.40;;;;;;;29.01;23.31;100199.95;107896;1258;62584;-66
2023/05/16 06:28:58;;;;;;;9.40;4.20;;;;;;;28.63;23.99;100195.65;107835;1257;59550;-67
2023/05/16 06:31:25;;;;;;;12.20;4.30;;;;;;;28.98;23.35;100201.92;107789;1256;72678;-67
2023/05/16 06:33:52;;;;;;;14.10;4.10;;;;;;;29.04;23.43;100203.42;107818;1257;70897;-68
2023/05/16 06:36:19;;;;;;;13.20;4.50;;;;;;;28.98;23.02;100202.12;107811;1256;73223;-67
2023/05/16 06:38:46;;;;;;;9.50;4.70;;;;;;;29.23;22.67;100205.17;107816;1257;59625;-67
2023/05/16 06:41:12;;;;;;;8.10;4.10;;;;;;;28.74;22.86;100198.73;107776;1262;61552;-68
2023/05/16 06:43:40;;;;;;;10.80;4.30;;;;;;;28.82;22.45;100195.88;107893;1256;74985;-66
2023/05/16 06:46:07;;;;;;;11.20;4.10;;;;;;;28.96;22.23;100190.80;107802;1256;69038;-67
2023/05/16 06:48:33;;;;;;;10.70;4.00;;;;;;;28.49;22.59;100189.62;107772;1256;71181;-67
2023/05/16 06:51:00;;;;;;;9.20;4.00;;;;;;;28.54;22.48;100184.14;107784;1256;60785;-67
2023/05/16 06:53:28;;;;;;;9.10;4.20;;;;;;;28.47;22.66;100187.77;107751;1256;62248;-67
2023/05/16 06:55:56;;;;;;;6.70;3.70;;;;;;;28.78;21.93;100183.13;107801;1256;74021;-66
2023/05/16 06:58:23;;;;;;;7.50;4.30;;;;;;;28.85;21.83;100179.94;107776;1257;72642;-67
2023/05/16 07:00:50;;;;;;;9.50;4.40;;;;;;;28.86;21.89;100177.28;107793;1262;74852;-68
2023/05/16 07:03:17;;;;;;;9.90;4.60;;;;;;;28.86;22.01;100174.00;107764;1257;62838;-66
2023/05/16 07:05:44;;;;;;;8.60;5.00;;;;;;;28.88;21.97;100175.96;107753;1257;63170;-67
2023/05/16 07:08:11;;;;;;;14.20;5.60;;;;;;;29.20;21.70;100168.71;107798;1256;73805;-67
2023/05/16 07:10:38;;;;;;;13.10;5.70;;;;;;;29.44;21.68;100165.19;107780;1256;72669;-68
2023/05/16 07:13:05;;;;;;;15.00;5.60;;;;;;;29.64;21.30;100167.11;107905;1256;75219;-67
2023/05/16 07:15:32;;;;;;;12.20;5.60;;;;;;;29.51;21.35;100169.80;107826;1255;62304;-68
2023/05/16 07:17:59;;;;;;;17.00;5.80;;;;;;;29.55;21.39;100167.77;107800;1256;61134;-68
2023/05/16 07:20:26;;;;;;;16.90;5.80;;;;;;;29.83;21.09;100167.65;107779;1256;75157;-66
2023/05/16 07:22:56;;;;;;;17.70;5.80;;;;;;;30.11;20.80;100164.50;107818;1258;72414;-66
2023/05/16 07:25:26;;;;;;;14.90;6.00;;;;;;;29.83;20.88;100161.94;107809;1255;73120;-67
2023/05/16 07:27:54;;;;;;;12.00;4.90;;;;;;;29.94;20.86;100156.16;107789;1256;59503;-67
2023/05/16 07:30:21;;;;;;;10.40;4.40;;;;;;;29.80;20.93;100156.67;107843;1256;62601;-67
2023/05/16 07:32:48;;;;;;;8.40;4.10;;;;;;;29.95;20.82;100154.59;107926;1256;72071;-68
2023/05/16 07:35:15;;;;;;;6.90;4.10;;;;;;;30.16;20.66;100161.84;107775;1255;72384;-69
2023/05/16 07:37:42;;;;;;;7.30;4.10;;;;;;;30.21;20.74;100161.56;107729;1256;72613;-70
2023/05/16 07:40:10;;;;;;;17.20;4.80;;;;;;;30.22;20.51;100165.70;107814;1255;61474;-69
2023/05/16 07:42:37;;;;;;;19.70;4.30;;;;;;;30.02;20.79;100160.88;107746;1256;61374;-69
2023/05/16 07:45:06;;;;;;;11.80;4.50;;;;;;;29.87;20.92;100164.10;107808;1256;73928;-69
2023/05/16 07:47:33;;;;;;;7.60;3.40;;;;;;;29.69;21.02;100165.66;107855;1256;72614;-68
2023/05/16 07:50:00;;;;;;;6.70;3.70;;;;;;;29.61;20.95;100172.90;107817;1256;73756;-69
2023/05/16 07:52:27;;;;;;;9.20;3.60;;;;;;;28.80;22.00;100173.30;107748;1261;62817;-68
2023/05/16 07:54:54;;;;;;;9.20;3.70;;;;;;;29.63;21.27;100172.77;107776;1255;62885;-69
2023/05/16 07:57:21;;;;;;;7.40;3.30;;;;;;;28.94;21.70;100183.13;107733;1255;74419;-67
2023/05/16 07:59:51;;;;;;;11.20;3.50;;;;;;;29.13;21.60;100188.36;107890;1256;71210;-68
2023/05/16 08:02:18;;;;;;;9.70;3.90;;;;;;;29.31;21.51;100189.86;107603;1257;73148;-68
2023/05/16 08:04:45;;;;;;;6.30;3.50;;;;;;;29.16;21.64;100190.04;107723;1255;59632;-69
2023/05/16 08:07:12;;;;;;;7.90;3.60;;;;;;;29.70;21.10;100188.63;107774;1255;60366;-67
2023/05/16 08:09:39;;;;;;;14.50;3.50;;;;;;;29.33;21.22;100192.48;107774;1256;73472;-67
2023/05/16 08:12:07;;;;;;;5.10;3.20;;;;;;;28.92;21.56;100194.85;107769;1256;72620;-68
2023/05/16 08:14:35;;;;;;;7.20;3.40;;;;;;;29.12;21.08;100191.75;107752;1257;73756;-68
2023/05/16 08:17:03;;;;;;;8.50;3.70;;;;;;;28.84;21.43;100191.11;107856;1256;62109;-67
2023/05/16 08:19:31;;;;;;;9.40;3.70;;;;;;;29.03;21.17;100193.25;107699;1256;62866;-70
2023/05/16 08:21:58;;;;;;;6.20;3.30;;;;;;;28.69;21.46;100192.04;107733;1256;75384;-68
2023/05/16 08:24:25;;;;;;;8.60;3.70;;;;;;;28.40;21.69;100187.66;107680;1256;70277;-68
2023/05/16 08:26:52;;;;;;;8.20;3.80;;;;;;;28.59;21.71;100185.76;107723;1256;74966;-67
2023/05/16 08:29:19;;;;;;;22.30;3.70;;;;;;;28.76;21.43;100186.40;107719;1256;62172;-67
2023/05/16 08:31:47;;;;;;;19.00;4.40;;;;;;;28.32;21.61;100188.05;107741;1256;60396;-66
2023/05/16 08:34:14;;;;;;;14.60;4.90;;;;;;;28.01;22.07;100186.23;107764;1256;75429;-68
2023/05/16 08:36:40;;;;;;;24.40;4.60;;;;;;;28.20;21.82;100195.29;107790;1256;72371;-69
2023/05/16 08:39:10;;;;;;;14.50;5.20;;;;;;;28.22;21.95;100193.36;107778;1256;74917;-67
2023/05/16 08:41:37;;;;;;;11.90;4.60;;;;;;;28.57;21.81;100198.42;107742;1258;62567;-67
2023/05/16 08:44:05;;;;;;;10.10;4.90;;;;;;;28.68;21.88;100200.85;107774;1256;61126;-69
2023/05/16 08:46:31;;;;;;;8.50;4.50;;;;;;;29.14;21.92;100213.58;107764;1256;73871;-68
2023/05/16 08:48:59;;;;;;;14.30;5.40;;;;;;;29.22;22.28;100219.34;107763;1256;69872;-68
2023/05/16 08:51:27;;;;;;;9.30;5.10;;;;;;;29.23;22.62;100228.23;107776;1258;75083;-65
2023/05/16 08:54:05;;;;;;;13.60;5.20;;;;;;;29.10;23.24;100233.88;107757;1256;61225;-67
2023/05/16 08:56:33;;;;;;;9.60;5.00;;;;;;;29.10;23.54;100231.17;107760;1256;62788;-67
2023/05/16 08:59:01;;;;;;;9.40;4.80;;;;;;;29.15;23.15;100222.89;107761;1256;74822;-66
2023/05/16 09:01:29;;;;;;;6.80;5.20;;;;;;;28.93;23.92;100221.31;107909;1256;73188;-66
2023/05/16 09:03:56;;;;;;;8.90;5.60;;;;;;;28.77;24.44;100212.10;107670;1257;74773;-69
2023/05/16 09:06:23;;;;;;;8.50;4.90;;;;;;;29.58;24.10;100200.89;107802;1256;62368;-68
2023/05/16 09:08:52;;;;;;;10.70;5.20;;;;;;;30.04;23.12;100185.95;107788;1256;62461;-69
2023/05/16 09:11:20;;;;;;;7.10;5.00;;;;;;;30.07;23.01;100181.11;107791;1256;74758;-67
2023/05/16 09:13:48;;;;;;;7.50;5.70;;;;;;;29.81;23.63;100176.89;107755;1256;71553;-69
2023/05/16 09:16:16;;;;;;;10.60;5.20;;;;;;;29.58;23.87;100174.60;107758;1257;74344;-68
2023/05/16 09:18:55;;;;;;;7.70;5.30;;;;;;;30.07;23.82;100160.26;107659;1256;60251;-68
2023/05/16 09:21:28;;;;;;;8.80;5.20;;;;;;;30.15;23.32;100163.30;107877;1256;62795;-69
2023/05/16 09:23:55;;;;;;;13.40;6.10;;;;;;;30.52;23.77;100162.14;107730;1256;73346;-70
2023/05/16 09:26:23;;;;;;;12.20;5.80;;;;;;;30.65;24.06;100164.00;107911;1257;72026;-70
2023/05/16 09:28:53;;;;;;;11.60;5.70;;;;;;;30.75;23.19;100162.58;107590;1257;73070;-70
2023/05/16 09:31:35;;;;;;;12.40;6.00;;;;;;;31.08;22.99;100160.31;107768;1262;60290;-69
2023/05/16 09:34:06;;;;;;;9.90;5.70;;;;;;;30.64;23.76;100160.48;107735;1257;62263;-68
2023/05/16 09:36:33;;;;;;;8.90;5.70;;;;;;;30.76;23.75;100159.45;107704;1257;74901;-69
2023/05/16 09:39:00;;;;;;;6.60;4.30;;;;;;;31.03;22.93;100159.89;107670;1258;68850;-69
2023/05/16 09:41:27;;;;;;;12.00;5.70;;;;;;;30.39;23.61;100158.80;107698;1257;73144;-69
2023/05/16 09:43:55;;;;;;;7.90;4.50;;;;;;;30.70;22.86;100161.70;107599;1259;61239;-68
2023/05/16 09:46:25;;;;;;;9.50;5.10;;;;;;;30.52;22.61;100159.02;107636;1258;60287;-68
2023/05/16 09:48:52;;;;;;;8.30;4.50;;;;;;;30.12;23.14;100158.67;107823;1258;76660;-69
2023/05/16 09:51:20;;;;;;;8.10;4.60;;;;;;;30.25;22.79;100160.21;107784;1257;70291;-69
2023/05/16 09:53:47;;;;;;;10.00;4.20;;;;;;;30.37;23.00;100159.57;107740;1262;73737;-69
2023/05/16 09:56:15;;;;;;;6.20;4.50;;;;;;;29.80;23.11;100160.50;107767;1257;60426;-69
2023/05/16 09:58:42;;;;;;;6.00;4.10;;;;;;;30.06;23.31;100162.75;107745;1257;62469;-68
2023/05/16 10:01:10;;;;;;;9.90;4.40;;;;;;;30.15;23.33;100168.52;107754;1257;74230;-69
2023/05/16 10:03:38;;;;;;;7.90;4.30;;;;;;;29.73;22.97;100180.71;107636;1257;71856;-69
2023/05/16 10:06:06;;;;;;;6.30;4.70;;;;;;;29.33;23.48;100179.50;107582;1257;72151;-68
2023/05/16 10:08:35;;;;;;;7.70;4.70;;;;;;;29.71;23.06;100179.98;107504;1257;60418;-67
2023/05/16 10:11:03;;;;;;;8.90;4.20;;;;;;;30.32;23.20;100181.71;107637;1257;62705;-68
2023/05/16 10:13:32;;;;;;;10.70;4.90;;;;;;;30.17;23.23;100186.73;107638;1257;73540;-68
2023/05/16 10:16:00;;;;;;;7.50;4.60;;;;;;;30.56;22.80;100175.59;107617;1258;72711;-69
2023/05/16 10:18:28;;;;;;;6.90;4.50;;;;;;;29.97;23.00;100173.95;107984;1254;75067;-68
2023/05/16 10:20:56;;;;;;;11.60;4.30;;;;;;;30.15;22.24;100176.70;107801;1256;62205;-69
2023/05/16 10:23:24;;;;;;;14.30;5.20;;;;;;;29.81;22.71;100175.66;107970;1255;62401;-68
2023/05/16 10:25:51;;;;;;;5.90;4.40;;;;;;;30.03;22.49;100178.48;107910;1253;74706;-67
2023/05/16 10:28:18;;;;;;;7.80;4.40;;;;;;;29.57;22.71;100169.82;107902;1254;72372;-68
2023/05/16 10:30:45;;;;;;;11.20;4.80;;;;;;;29.87;22.82;100171.42;107986;1254;74990;-69
2023/05/16 10:33:14;;;;;;;6.90;4.30;;;;;;;29.93;22.93;100164.58;108014;1254;62587;-71
2023/05/16 10:35:42;;;;;;;10.70;4.20;;;;;;;30.51;21.94;100165.61;108028;1254;62046;-69
2023/05/16 10:38:10;;;;;;;7.80;4.60;;;;;;;30.69;21.77;100163.27;108069;1254;74514;-69
2023/05/16 10:40:38;;;;;;;10.50;4.50;;;;;;;30.58;22.00;100165.41;108072;1254;72384;-68
2023/05/16 10:43:10;;;;;;;9.70;4.00;;;;;;;30.28;22.09;100160.80;107930;1254;75032;-68
2023/05/16 10:45:43;;;;;;;13.50;4.50;;;;;;;30.51;22.13;100167.33;107948;1254;61156;-68
2023/05/16 10:48:11;;;;;;;9.10;4.30;;;;;;;30.45;22.30;100166.86;108000;1254;62520;-66
2023/05/16 10:50:44;;;;;;;7.80;4.00;;;;;;;30.53;21.89;100161.38;108083;1253;74626;-67
2023/05/16 10:53:18;;;;;;;11.90;4.70;;;;;;;30.66;21.96;100151.59;107961;1254;70507;-67
2023/05/16 10:55:58;;;;;;;8.10;4.10;;;;;;;30.30;22.07;100154.91;107967;1255;74717;-67
2023/05/16 10:58:37;;;;;;;11.50;5.00;;;;;;;30.21;22.02;100160.73;107925;1254;61532;-67
2023/05/16 11:01:17;;;;;;;6.60;3.60;;;;;;;30.09;21.88;100161.60;107886;1254;60449;-68
2023/05/16 11:04:03;;;;;;;7.80;4.20;;;;;;;29.69;22.30;100161.40;108091;1254;75133;-66
2023/05/16 11:06:33;;;;;;;7.70;4.00;;;;;;;30.13;22.53;100167.52;108003;1256;72112;-69
2023/05/16 11:09:08;;;;;;;11.50;4.10;;;;;;;30.59;21.85;100169.23;107961;1254;74791;-70
2023/05/16 11:11:46;;;;;;;7.40;3.40;;;;;;;30.27;22.09;100171.66;107955;1254;61728;-68
2023/05/16 11:14:22;;;;;;;14.40;4.60;;;;;;;30.30;22.12;100163.23;108042;1256;61055;-69
2023/05/16 11:16:50;;;;;;;7.20;4.30;;;;;;;30.41;21.95;100165.27;108064;1254;73522;-69
2023/05/16 11:19:39;;;;;;;9.20;4.80;;;;;;;30.30;22.24;100170.52;108049;1253;69916;-67